createdAt,value
2019-03-17T00:00:28.541Z,51.90
2019-03-17T00:02:59.068Z,51.30
2019-03-17T00:05:30.372Z,51.40
2019-03-17T00:08:01.093Z,51.50
2019-03-17T00:10:31.887Z,51.20
2019-03-17T00:13:02.683Z,51.30
2019-03-17T00:15:35.061Z,51.40
2019-03-17T00:18:05.894Z,51.40
2019-03-17T00:20:37.429Z,51.40
2019-03-17T00:23:07.861Z,51.60
2019-03-17T00:25:38.152Z,51.20
2019-03-17T00:28:09.211Z,51.50
2019-03-17T00:30:40.232Z,51.80
2019-03-17T00:33:11.467Z,51.60
2019-03-17T00:35:41.764Z,51.70
2019-03-17T00:38:11.946Z,55.80
2019-03-17T00:40:43.626Z,56.30
2019-03-17T00:43:13.805Z,55.70
2019-03-17T00:45:43.975Z,55.70
2019-03-17T00:48:14.190Z,54.50
2019-03-17T00:50:44.604Z,54.10
2019-03-17T00:53:15.293Z,54.40
2019-03-17T00:55:45.736Z,55.20
2019-03-17T00:58:16.426Z,58.20
2019-03-17T01:00:46.726Z,59.10
2019-03-17T01:03:18.336Z,59.70
2019-03-17T01:05:48.920Z,60.50
2019-03-17T01:08:19.301Z,61.50
2019-03-17T01:10:49.699Z,60.90
2019-03-17T01:13:19.975Z,57.80
2019-03-17T01:15:50.907Z,57.60
2019-03-17T01:18:21.170Z,57.10
2019-03-17T01:20:51.487Z,57.40
2019-03-17T01:23:22.032Z,57.60
2019-03-17T01:25:52.491Z,57.70
2019-03-17T01:28:23.178Z,57.50
2019-03-17T01:30:53.515Z,57.80
2019-03-17T01:33:24.455Z,58.10
2019-03-17T01:35:55.252Z,58.10
2019-03-17T01:38:25.866Z,58.10
2019-03-17T01:40:57.806Z,58.30
2019-03-17T01:43:27.962Z,59.50
2019-03-17T01:45:58.252Z,59.70
2019-03-17T01:48:29.588Z,60.90
2019-03-17T01:51:02.485Z,62.80
2019-03-17T01:53:32.750Z,63.60
2019-03-17T01:56:03.358Z,63.60
2019-03-17T01:58:33.779Z,64.50
2019-03-17T02:01:04.212Z,66.60
2019-03-17T02:03:34.361Z,69.00
2019-03-17T02:06:06.866Z,70.10
2019-03-17T02:08:39.295Z,71.00
2019-03-17T02:11:09.814Z,72.10
2019-03-17T02:13:41.136Z,73.70
2019-03-17T02:16:11.565Z,76.00
2019-03-17T02:18:41.851Z,77.60
2019-03-17T02:21:12.263Z,77.00
2019-03-17T02:23:44.610Z,78.90
2019-03-17T02:26:14.835Z,78.70
2019-03-17T02:28:45.109Z,79.60
2019-03-17T02:31:15.467Z,80.40
2019-03-17T02:33:45.883Z,81.50
2019-03-17T02:36:16.152Z,82.00
2019-03-17T02:38:46.475Z,82.80
2019-03-17T02:41:16.916Z,83.50
2019-03-17T02:43:47.246Z,83.90
2019-03-17T02:46:17.528Z,84.40
2019-03-17T02:48:48.931Z,85.10
2019-03-17T02:51:19.675Z,84.90
2019-03-17T02:53:51.003Z,85.50
2019-03-17T02:56:21.373Z,86.10
2019-03-17T02:58:51.755Z,86.10
2019-03-17T03:01:22.200Z,85.70
2019-03-17T03:04:04.512Z,85.50
2019-03-17T03:06:34.903Z,86.30
2019-03-17T03:09:07.932Z,86.30
2019-03-17T03:11:38.926Z,86.40
2019-03-17T03:14:10.446Z,87.00
2019-03-17T03:16:44.072Z,88.00
2019-03-17T03:19:14.671Z,89.20
2019-03-17T03:21:45.165Z,89.60
2019-03-17T03:24:47.275Z,90.10
2019-03-17T03:27:17.668Z,90.20
2019-03-17T03:29:48.421Z,90.50
2019-03-17T03:32:19.161Z,90.90
2019-03-17T03:34:50.329Z,90.80
2019-03-17T03:37:20.772Z,90.90
2019-03-17T03:39:51.095Z,90.70
2019-03-17T03:42:21.825Z,90.80
2019-03-17T03:44:52.145Z,90.80
2019-03-17T03:47:24.561Z,90.90
2019-03-17T03:49:57.337Z,91.10
2019-03-17T03:52:27.884Z,91.30
2019-03-17T03:54:58.224Z,90.90
2019-03-17T03:57:28.456Z,90.80
2019-03-17T03:59:58.713Z,90.80
2019-03-17T04:02:29.142Z,91.10
2019-03-17T04:04:59.436Z,91.30
2019-03-17T04:07:29.796Z,91.30
2019-03-17T04:10:00.522Z,91.50
2019-03-17T04:12:31.405Z,92.20
2019-03-17T04:15:06.224Z,92.50
2019-03-17T04:17:36.665Z,92.80
2019-03-17T04:20:08.531Z,92.90
2019-03-17T04:22:38.683Z,92.70
2019-03-17T04:25:09.989Z,92.80
2019-03-17T04:27:40.464Z,93.00
2019-03-17T04:30:11.057Z,93.30
2019-03-17T04:32:41.595Z,93.60
2019-03-17T04:35:13.633Z,93.70
2019-03-17T04:37:43.964Z,94.20
2019-03-17T04:40:14.749Z,94.40
2019-03-17T04:43:00.185Z,94.40
2019-03-17T04:45:30.632Z,94.70
2019-03-17T04:48:01.263Z,94.40
2019-03-17T04:50:31.490Z,94.10
2019-03-17T04:53:02.929Z,93.80
2019-03-17T04:55:33.262Z,93.30
2019-03-17T04:58:03.496Z,92.50
2019-03-17T05:00:34.338Z,91.80
2019-03-17T05:03:05.196Z,91.70
2019-03-17T05:05:35.921Z,91.60
2019-03-17T05:08:06.483Z,91.20
2019-03-17T05:10:36.901Z,90.70
2019-03-17T05:13:07.300Z,90.20
2019-03-17T05:15:37.738Z,90.20
2019-03-17T05:18:08.141Z,91.00
2019-03-17T05:20:38.346Z,91.50
2019-03-17T05:23:08.702Z,91.00
2019-03-17T05:25:39.102Z,91.10
2019-03-17T05:28:09.435Z,91.30
2019-03-17T05:30:40.231Z,91.40
2019-03-17T05:33:10.661Z,91.50
2019-03-17T05:35:42.061Z,91.50
2019-03-17T05:38:12.433Z,91.60
2019-03-17T05:40:43.388Z,91.60
2019-03-17T05:43:13.533Z,92.10
2019-03-17T05:45:43.907Z,93.00
2019-03-17T05:48:14.367Z,93.20
2019-03-17T05:50:45.530Z,93.50
2019-03-17T05:53:16.033Z,93.80
2019-03-17T05:55:46.228Z,94.10
2019-03-17T05:58:16.562Z,94.60
2019-03-17T06:00:56.473Z,94.60
2019-03-17T06:03:27.676Z,94.90
2019-03-17T06:05:58.129Z,94.90
2019-03-17T06:08:28.512Z,95.30
2019-03-17T06:10:58.884Z,95.70
2019-03-17T06:13:29.271Z,96.00
2019-03-17T06:15:59.603Z,96.10
2019-03-17T06:18:29.774Z,96.70
2019-03-17T06:21:00.477Z,96.60
2019-03-17T06:23:30.728Z,96.80
2019-03-17T06:26:01.228Z,97.00
2019-03-17T06:28:31.542Z,97.50
2019-03-17T06:31:02.437Z,97.60
2019-03-17T06:33:33.258Z,97.80
2019-03-17T06:36:03.445Z,98.20
2019-03-17T06:38:35.130Z,97.60
2019-03-17T06:41:05.848Z,97.90
2019-03-17T06:43:37.457Z,97.90
2019-03-17T06:46:07.727Z,98.10
2019-03-17T06:48:38.399Z,98.20
2019-03-17T06:51:09.085Z,98.20
2019-03-17T06:53:39.406Z,98.30
2019-03-17T06:56:09.631Z,98.10
2019-03-17T06:58:39.763Z,97.80
2019-03-17T07:01:10.096Z,97.70
2019-03-17T07:03:42.558Z,97.70
2019-03-17T07:06:12.959Z,97.60
2019-03-17T07:08:43.254Z,97.30
2019-03-17T07:11:15.039Z,96.30
2019-03-17T07:13:45.297Z,96.20
2019-03-17T07:16:15.798Z,96.20
2019-03-17T07:18:46.604Z,96.00
2019-03-17T07:21:18.045Z,95.70
2019-03-17T07:23:48.362Z,95.30
2019-03-17T07:26:18.615Z,95.20
2019-03-17T07:28:54.317Z,94.80
2019-03-17T07:31:24.540Z,94.60
2019-03-17T07:33:55.489Z,94.30
2019-03-17T07:36:26.141Z,94.30
2019-03-17T07:39:10.851Z,94.00
2019-03-17T07:41:31.117Z,94.40
2019-03-17T07:44:01.839Z,94.50
2019-03-17T07:46:33.269Z,94.90
2019-03-17T07:49:04.240Z,94.50
2019-03-17T07:51:35.559Z,94.10
2019-03-17T07:54:06.049Z,93.70
2019-03-17T07:56:37.309Z,93.40
2019-03-17T07:59:07.657Z,93.90
2019-03-17T08:01:38.028Z,93.70
2019-03-17T08:04:08.456Z,93.70
2019-03-17T08:06:38.954Z,93.80
2019-03-17T08:09:10.021Z,93.40
2019-03-17T08:11:40.533Z,93.30
2019-03-17T08:14:10.820Z,93.10
2019-03-17T08:16:41.068Z,92.80
2019-03-17T08:19:12.272Z,92.80
2019-03-17T08:21:43.381Z,93.00
2019-03-17T08:24:13.951Z,93.10
2019-03-17T08:26:44.423Z,92.40
2019-03-17T08:29:15.064Z,92.60
2019-03-17T08:31:45.331Z,92.10
2019-03-17T08:34:16.128Z,91.80
2019-03-17T08:36:46.649Z,90.90
2019-03-17T08:39:18.463Z,91.70
2019-03-17T08:41:48.686Z,90.30
2019-03-17T08:44:20.026Z,89.70
2019-03-17T08:46:50.393Z,85.30
2019-03-17T08:49:20.722Z,83.00
2019-03-17T08:51:51.233Z,80.10
2019-03-17T08:54:21.375Z,77.00
2019-03-17T08:56:51.569Z,76.90
2019-03-17T08:59:21.766Z,75.60
2019-03-17T09:01:52.501Z,73.70
2019-03-17T09:04:24.778Z,72.80
2019-03-17T09:06:54.921Z,71.20
2019-03-17T09:09:25.229Z,69.50
2019-03-17T09:11:55.436Z,69.30
2019-03-17T09:14:25.703Z,69.80
2019-03-17T09:16:56.386Z,70.00
2019-03-17T09:19:27.270Z,66.40
2019-03-17T09:21:57.728Z,66.00
2019-03-17T09:24:28.137Z,66.60
2019-03-17T09:26:58.287Z,67.10
2019-03-17T09:29:28.599Z,66.00
2019-03-17T09:31:58.777Z,65.70
2019-03-17T09:34:29.399Z,66.20
2019-03-17T09:36:59.620Z,67.50
2019-03-17T09:39:29.937Z,68.30
2019-03-17T09:42:00.404Z,68.30
2019-03-17T09:44:30.734Z,68.50
2019-03-17T09:47:01.860Z,68.20
2019-03-17T09:49:32.024Z,67.80
2019-03-17T09:52:02.177Z,68.60
2019-03-17T09:54:32.331Z,68.10
2019-03-17T09:57:02.548Z,67.90
2019-03-17T09:59:32.781Z,66.60
2019-03-17T10:02:03.368Z,68.30
2019-03-17T10:04:33.566Z,71.30
2019-03-17T10:07:04.912Z,74.20
2019-03-17T10:09:35.167Z,75.50
2019-03-17T10:12:05.428Z,78.30
2019-03-17T10:14:36.032Z,79.40
2019-03-17T10:17:07.630Z,81.20
2019-03-17T10:19:38.249Z,83.60
2019-03-17T10:22:08.715Z,85.50
2019-03-17T10:24:38.799Z,86.00
2019-03-17T10:27:09.003Z,87.00
2019-03-17T10:29:39.637Z,88.20
2019-03-17T10:32:10.040Z,90.00
2019-03-17T10:34:40.210Z,90.20
2019-03-17T10:37:11.437Z,90.50
2019-03-17T10:39:41.481Z,90.80
2019-03-17T10:42:11.941Z,91.20
2019-03-17T10:44:42.505Z,90.80
2019-03-17T10:47:12.812Z,90.90
2019-03-17T10:49:43.104Z,90.60
2019-03-17T10:52:17.631Z,90.30
2019-03-17T10:54:48.301Z,90.50
2019-03-17T10:57:18.823Z,91.20
2019-03-17T10:59:49.233Z,91.80
2019-03-17T11:02:19.518Z,91.30
2019-03-17T11:04:49.746Z,91.00
2019-03-17T11:07:20.155Z,91.30
2019-03-17T11:09:50.390Z,91.20
2019-03-17T11:12:20.788Z,91.60
2019-03-17T11:14:50.923Z,92.00
2019-03-17T11:17:21.091Z,91.90
2019-03-17T11:19:51.325Z,92.10
2019-03-17T11:22:21.537Z,92.40
2019-03-17T11:24:51.863Z,93.10
2019-03-17T11:27:22.322Z,93.40
2019-03-17T11:29:52.570Z,92.60
2019-03-17T11:32:23.182Z,91.70
2019-03-17T11:34:54.447Z,90.10
2019-03-17T11:37:25.091Z,89.20
2019-03-17T11:39:56.657Z,87.80
2019-03-17T11:42:27.064Z,87.00
2019-03-17T11:44:57.255Z,85.90
2019-03-17T11:47:27.997Z,86.10
2019-03-17T11:49:58.400Z,86.40
2019-03-17T11:52:29.204Z,86.30
2019-03-17T11:55:00.367Z,86.60
2019-03-17T11:57:31.706Z,85.40
2019-03-17T12:00:02.822Z,85.20
2019-03-17T12:02:33.096Z,84.10
2019-03-17T12:05:03.519Z,84.90
2019-03-17T12:07:33.631Z,84.30
2019-03-17T12:10:04.054Z,83.60
2019-03-17T12:12:34.422Z,84.30
2019-03-17T12:15:04.945Z,83.50
2019-03-17T12:17:35.651Z,84.20
2019-03-17T12:20:07.256Z,84.90
2019-03-17T12:22:37.437Z,86.20
2019-03-17T12:25:11.489Z,85.30
2019-03-17T12:27:41.030Z,85.10
2019-03-17T12:30:17.425Z,84.20
2019-03-17T12:32:47.673Z,85.00
2019-03-17T12:35:18.072Z,85.80
2019-03-17T12:37:49.040Z,85.80
2019-03-17T12:40:19.681Z,87.60
2019-03-17T12:42:50.219Z,88.00
2019-03-17T12:45:20.657Z,88.70
2019-03-17T12:47:50.931Z,89.70
2019-03-17T12:50:21.279Z,90.00
2019-03-17T12:52:53.469Z,89.30
2019-03-17T12:55:25.220Z,89.10
2019-03-17T12:57:55.813Z,89.30
2019-03-17T13:00:26.420Z,88.60
2019-03-17T13:02:56.559Z,88.60
2019-03-17T13:05:27.008Z,88.90
2019-03-17T13:07:57.299Z,89.70
2019-03-17T13:10:28.540Z,89.10
2019-03-17T13:12:59.494Z,89.50
2019-03-17T13:15:30.068Z,89.10
2019-03-17T13:18:03.752Z,87.70
2019-03-17T13:20:34.502Z,87.50
2019-03-17T13:23:05.353Z,87.30
2019-03-17T13:25:35.990Z,88.20
2019-03-17T13:28:06.707Z,88.10
2019-03-17T13:30:37.285Z,87.10
2019-03-17T13:33:09.495Z,86.20
2019-03-17T13:35:39.989Z,86.60
2019-03-17T13:38:11.963Z,87.10
2019-03-17T13:40:43.389Z,87.40
2019-03-17T13:43:13.563Z,88.80
2019-03-17T13:45:45.184Z,85.20
2019-03-17T13:48:15.878Z,84.00
2019-03-17T13:50:49.578Z,82.50
2019-03-17T13:53:19.736Z,82.30
2019-03-17T13:55:50.301Z,82.10
2019-03-17T13:58:20.890Z,81.60
2019-03-17T14:00:52.005Z,80.80
2019-03-17T14:03:22.779Z,79.30
2019-03-17T14:05:53.380Z,79.90
2019-03-17T14:08:23.591Z,79.90
2019-03-17T14:10:53.872Z,80.50
2019-03-17T14:13:24.788Z,79.50
2019-03-17T14:15:55.421Z,79.20
2019-03-17T14:18:25.530Z,79.70
2019-03-17T14:20:55.912Z,79.00
2019-03-17T14:23:27.124Z,78.70
2019-03-17T14:25:57.711Z,78.20
2019-03-17T14:28:28.399Z,78.00
2019-03-17T14:30:59.396Z,79.80
2019-03-17T14:33:29.995Z,79.20
2019-03-17T14:36:00.372Z,78.90
2019-03-17T14:38:30.528Z,78.50
2019-03-17T14:41:01.494Z,78.20
2019-03-17T14:43:31.663Z,76.30
2019-03-17T14:46:01.830Z,76.80
2019-03-17T14:48:31.958Z,77.70
2019-03-17T14:51:02.622Z,75.20
2019-03-17T14:53:33.095Z,76.30
2019-03-17T14:56:03.683Z,75.80
2019-03-17T14:58:33.761Z,74.60
2019-03-17T15:01:04.049Z,75.80
2019-03-17T15:03:34.250Z,75.60
2019-03-17T15:06:04.439Z,74.90
2019-03-17T15:08:34.517Z,75.00
2019-03-17T15:11:06.065Z,75.20
2019-03-17T15:13:36.471Z,75.00
2019-03-17T15:16:07.764Z,74.10
2019-03-17T15:18:37.858Z,75.00
2019-03-17T15:21:08.025Z,74.80
2019-03-17T15:23:38.225Z,74.00
2019-03-17T15:26:08.435Z,74.20
2019-03-17T15:28:38.814Z,73.60
2019-03-17T15:31:11.928Z,73.30
2019-03-17T15:33:41.621Z,73.30
2019-03-17T15:36:11.741Z,72.70
2019-03-17T15:38:43.271Z,73.10
2019-03-17T15:41:18.810Z,72.30
2019-03-17T15:43:48.710Z,72.80
2019-03-17T15:46:18.815Z,73.60
2019-03-17T15:48:49.071Z,74.30
2019-03-17T15:51:20.679Z,75.20
2019-03-17T15:53:51.300Z,74.70
2019-03-17T15:56:21.498Z,75.10
2019-03-17T15:58:51.895Z,75.30
2019-03-17T16:01:22.106Z,75.00
2019-03-17T16:03:52.588Z,75.40
2019-03-17T16:06:27.367Z,75.80
2019-03-17T16:08:57.950Z,76.40
2019-03-17T16:11:31.120Z,76.40
2019-03-17T16:14:01.861Z,75.20
2019-03-17T16:16:32.215Z,75.30
2019-03-17T16:19:02.514Z,76.70
2019-03-17T16:21:33.577Z,77.80
2019-03-17T16:24:03.841Z,79.60
2019-03-17T16:26:33.874Z,80.70
2019-03-17T16:29:08.856Z,82.00
2019-03-17T16:31:39.802Z,83.10
2019-03-17T16:34:09.948Z,84.00
2019-03-17T16:36:41.759Z,84.70
2019-03-17T16:39:14.940Z,85.60
2019-03-17T16:41:47.009Z,86.00
2019-03-17T16:44:17.430Z,86.70
2019-03-17T16:46:49.562Z,87.10
2019-03-17T16:49:20.144Z,87.60
2019-03-17T16:51:50.738Z,87.90
2019-03-17T16:54:20.815Z,88.20
2019-03-17T16:56:52.121Z,88.50
2019-03-17T16:59:23.012Z,89.30
2019-03-17T17:01:53.306Z,90.00
2019-03-17T17:04:23.576Z,90.10
2019-03-17T17:06:53.999Z,90.20
2019-03-17T17:09:25.569Z,90.40
2019-03-17T17:11:57.475Z,90.60
2019-03-17T17:14:28.429Z,90.90
2019-03-17T17:16:59.962Z,91.10
2019-03-17T17:19:32.648Z,91.20
2019-03-17T17:22:02.982Z,91.10
2019-03-17T17:24:33.307Z,91.50
2019-03-17T17:27:03.880Z,91.40
2019-03-17T17:29:34.855Z,91.70
2019-03-17T17:32:05.267Z,92.10
2019-03-17T17:34:36.823Z,92.00
2019-03-17T17:37:07.215Z,92.20
2019-03-17T17:39:38.028Z,92.70
2019-03-17T17:42:10.234Z,92.60
2019-03-17T17:44:41.201Z,92.70
2019-03-17T17:47:12.107Z,92.70
2019-03-17T17:49:42.373Z,93.10
2019-03-17T17:52:14.189Z,93.10
2019-03-17T17:54:44.487Z,93.20
2019-03-17T17:57:18.233Z,93.30
2019-03-17T17:59:48.602Z,93.50
2019-03-17T18:02:19.063Z,93.50
2019-03-17T18:04:49.289Z,93.60
2019-03-17T18:07:19.771Z,93.60
2019-03-17T18:09:50.202Z,93.60
2019-03-17T18:12:21.515Z,94.00
2019-03-17T18:14:53.174Z,94.20
2019-03-17T18:17:23.269Z,94.30
2019-03-17T18:19:53.574Z,94.50
2019-03-17T18:22:23.689Z,94.70
2019-03-17T18:24:54.250Z,94.90
2019-03-17T18:27:26.332Z,94.80
2019-03-17T18:29:57.735Z,94.90
2019-03-17T18:32:28.371Z,94.90
2019-03-17T18:34:58.958Z,95.10
2019-03-17T18:37:29.174Z,95.10
2019-03-17T18:39:59.571Z,95.30
2019-03-17T18:42:33.338Z,95.40
2019-03-17T18:45:03.015Z,95.70
2019-03-17T18:47:33.158Z,95.80
2019-03-17T18:50:04.567Z,95.90
2019-03-17T18:52:35.409Z,96.20
2019-03-17T18:55:05.971Z,96.30
2019-03-17T18:57:37.587Z,96.40
2019-03-17T19:00:10.505Z,96.40
2019-03-17T19:02:40.576Z,96.30
2019-03-17T19:05:11.140Z,96.50
2019-03-17T19:07:41.417Z,96.60
2019-03-17T19:10:11.807Z,96.40
2019-03-17T19:12:45.935Z,96.20
2019-03-17T19:15:15.485Z,96.20
2019-03-17T19:17:46.299Z,96.40
2019-03-17T19:20:17.933Z,96.60
2019-03-17T19:22:48.636Z,96.70
2019-03-17T19:25:19.007Z,96.60
2019-03-17T19:27:51.529Z,96.70
2019-03-17T19:30:25.607Z,96.90
2019-03-17T19:32:56.362Z,96.90
2019-03-17T19:35:27.762Z,97.20
2019-03-17T19:37:58.250Z,97.30
2019-03-17T19:40:28.847Z,97.40
2019-03-17T19:42:59.890Z,97.50
2019-03-17T19:45:30.863Z,97.60
2019-03-17T19:48:01.057Z,97.70
2019-03-17T19:50:33.242Z,97.30
2019-03-17T19:53:03.733Z,97.40
2019-03-17T19:55:34.362Z,97.80
2019-03-17T19:58:04.860Z,97.30
2019-03-17T20:00:35.658Z,97.60
2019-03-17T20:03:07.173Z,97.70
2019-03-17T20:05:37.534Z,98.00
2019-03-17T20:08:08.167Z,98.10
2019-03-17T20:10:38.852Z,98.00
2019-03-17T20:13:11.818Z,98.40
2019-03-17T20:15:44.364Z,98.20
2019-03-17T20:18:14.593Z,98.10
2019-03-17T20:20:45.165Z,97.90
2019-03-17T20:23:25.623Z,97.80
2019-03-17T20:25:56.163Z,98.00
2019-03-17T20:28:26.847Z,98.00
2019-03-17T20:30:58.115Z,97.60
2019-03-17T20:33:29.838Z,97.80
2019-03-17T20:36:00.748Z,97.90
2019-03-17T20:38:36.350Z,97.70
2019-03-17T20:41:06.965Z,97.90
2019-03-17T20:43:38.554Z,98.00
2019-03-17T20:46:12.986Z,97.80
2019-03-17T20:48:43.812Z,97.80
2019-03-17T20:51:14.562Z,98.40
2019-03-17T20:53:46.274Z,98.30
2019-03-17T20:56:16.870Z,98.10
2019-03-17T20:58:47.526Z,98.20
2019-03-17T21:01:17.885Z,98.30
2019-03-17T21:03:48.311Z,98.10
2019-03-17T21:06:24.562Z,98.40
2019-03-17T21:08:56.497Z,98.60
2019-03-17T21:11:26.879Z,98.60
2019-03-17T21:14:03.356Z,98.50
2019-03-17T21:16:34.305Z,98.70
2019-03-17T21:19:04.773Z,99.00
2019-03-17T21:21:39.904Z,99.10
2019-03-17T21:24:10.013Z,99.50
2019-03-17T21:26:40.560Z,99.40
2019-03-17T21:29:11.115Z,99.50
2019-03-17T21:31:41.727Z,99.80
2019-03-17T21:34:12.340Z,99.90
2019-03-17T21:36:42.700Z,99.90
2019-03-17T21:39:13.708Z,99.90
2019-03-17T21:41:44.967Z,99.90
2019-03-17T21:44:18.251Z,99.90
2019-03-17T21:46:49.067Z,99.90
2019-03-17T21:49:19.679Z,99.90
2019-03-17T21:51:55.687Z,99.90
2019-03-17T21:54:26.388Z,99.90
2019-03-17T21:56:56.887Z,99.90
2019-03-17T21:59:30.206Z,99.90
2019-03-17T22:02:12.488Z,99.90
2019-03-17T22:04:35.566Z,99.90
2019-03-17T22:07:06.351Z,99.90
2019-03-17T22:09:37.422Z,99.90
2019-03-17T22:12:08.650Z,99.90
2019-03-17T22:14:39.172Z,99.90
2019-03-17T22:17:10.209Z,99.90
2019-03-17T22:19:40.696Z,99.90
2019-03-17T22:22:11.039Z,99.90
2019-03-17T22:24:42.733Z,99.90
2019-03-17T22:27:13.031Z,99.90
2019-03-17T22:29:43.383Z,99.90
2019-03-17T22:32:14.035Z,99.90
2019-03-17T22:34:44.227Z,99.90
2019-03-17T22:37:14.995Z,99.90
2019-03-17T22:39:45.484Z,99.90
2019-03-17T22:42:16.442Z,99.90
2019-03-17T22:44:46.856Z,99.90
2019-03-17T22:47:18.890Z,99.90
2019-03-17T22:49:51.128Z,99.90
2019-03-17T22:52:22.532Z,99.90
2019-03-17T22:54:54.224Z,99.90
2019-03-17T22:57:24.474Z,99.90
2019-03-17T22:59:55.279Z,99.90
2019-03-17T23:02:25.728Z,99.90
2019-03-17T23:04:56.098Z,99.90
2019-03-17T23:07:26.886Z,99.90
2019-03-17T23:09:57.702Z,99.90
2019-03-17T23:12:29.316Z,99.90
2019-03-17T23:14:59.866Z,99.90
2019-03-17T23:17:30.700Z,99.90
2019-03-17T23:20:01.087Z,99.90
2019-03-17T23:22:31.991Z,99.90
2019-03-17T23:25:02.514Z,99.90
2019-03-17T23:27:32.970Z,99.90
2019-03-17T23:30:03.427Z,99.90
2019-03-17T23:32:33.843Z,99.00
2019-03-17T23:35:04.357Z,96.70
2019-03-17T23:37:34.699Z,92.00
2019-03-17T23:40:06.147Z,91.00
2019-03-17T23:42:36.576Z,91.40
2019-03-17T23:45:07.571Z,91.40
2019-03-17T23:47:37.860Z,90.90
2019-03-17T23:50:08.319Z,90.90
2019-03-17T23:52:39.945Z,90.80
2019-03-17T23:55:11.602Z,90.30
2019-03-17T23:57:41.881Z,90.00
